Time;durP1;ratioP1;P1;durP2;ratioP2;P2;SDS_P1;SDS_P2;PMS_P1;PMS_P2;Temp;Humidity;BMP_temperature;BMP_pressure;BME280_temperature;BME280_humidity;BME280_pressure;Samples;Min_cycle;Max_cycle;Signal;HPM_P1;HPM_P2
2020/12/31 00:02:12;;;;;;;3.05;1.50;;;;;;;12.72;47.68;99677.94;4890492;28;99487;-58
2020/12/31 00:04:38;;;;;;;2.30;1.23;;;;;;;12.68;47.97;99672.31;4882692;28;98451;-58
2020/12/31 00:07:04;;;;;;;2.60;1.45;;;;;;;12.68;47.97;99674.22;4883819;28;98039;-57
2020/12/31 00:09:31;;;;;;;2.63;1.80;;;;;;;12.64;48.09;99675.94;4871396;28;126453;-57
2020/12/31 00:11:57;;;;;;;3.10;1.50;;;;;;;12.64;48.12;99684.03;4882654;28;98310;-58
2020/12/31 00:14:24;;;;;;;2.78;1.70;;;;;;;12.61;47.73;99680.03;4882700;28;97875;-58
2020/12/31 00:16:50;;;;;;;2.15;1.35;;;;;;;12.60;48.12;99678.44;4880582;28;117882;-58
2020/12/31 00:19:16;;;;;;;3.13;1.45;;;;;;;12.58;47.67;99686.06;4879878;28;127993;-58
2020/12/31 00:21:42;;;;;;;2.20;1.38;;;;;;;12.58;47.74;99683.34;4893433;28;128308;-57
2020/12/31 00:24:08;;;;;;;2.08;1.52;;;;;;;12.56;47.85;99682.84;4902187;28;100792;-57
2020/12/31 00:26:34;;;;;;;1.80;1.30;;;;;;;12.53;48.14;99686.13;4901889;28;117299;-57
2020/12/31 00:29:00;;;;;;;2.72;1.42;;;;;;;12.51;48.00;99691.84;4900391;28;103594;-57
2020/12/31 00:31:26;;;;;;;2.30;1.38;;;;;;;12.48;48.16;99687.03;4899973;28;127781;-58
2020/12/31 00:33:52;;;;;;;2.80;1.40;;;;;;;12.49;48.26;99685.94;4900876;28;127273;-58
2020/12/31 00:36:18;;;;;;;2.08;1.30;;;;;;;12.48;48.34;99689.72;4899683;28;107796;-57
2020/12/31 00:38:44;;;;;;;2.78;1.30;;;;;;;12.48;48.09;99692.44;4873725;28;128413;-57
2020/12/31 00:41:11;;;;;;;2.55;1.30;;;;;;;12.44;48.24;99688.72;4895414;28;127727;-58
2020/12/31 00:43:37;;;;;;;2.35;1.20;;;;;;;12.43;48.17;99689.03;4879934;28;123149;-57
2020/12/31 00:46:03;;;;;;;1.90;1.20;;;;;;;12.42;48.23;99695.56;4876244;28;114452;-57
2020/12/31 00:48:29;;;;;;;1.77;1.02;;;;;;;12.42;47.79;99695.56;4892872;28;98848;-58
2020/12/31 00:50:55;;;;;;;2.50;1.20;;;;;;;12.41;48.09;99697.44;4900909;28;128398;-58
2020/12/31 00:53:21;;;;;;;2.05;1.30;;;;;;;12.40;47.94;99703.94;4892825;28;100229;-58
2020/12/31 00:55:47;;;;;;;2.50;1.20;;;;;;;12.38;48.52;99703.44;4901124;28;118169;-58
2020/12/31 00:58:13;;;;;;;2.15;1.20;;;;;;;12.36;47.83;99702.13;4890072;28;99675;-57
2020/12/31 01:00:39;;;;;;;2.70;1.10;;;;;;;12.36;47.76;99700.22;4896547;28;115036;-58
2020/12/31 01:03:06;;;;;;;2.45;1.35;;;;;;;12.31;48.01;99696.81;4881792;28;126813;-57
2020/12/31 01:05:33;;;;;;;2.83;1.10;;;;;;;12.33;48.45;99702.72;4882359;28;97953;-57
2020/12/31 01:07:59;;;;;;;1.70;1.20;;;;;;;12.31;48.04;99702.22;4881859;28;116035;-58
2020/12/31 01:10:25;;;;;;;1.83;1.10;;;;;;;12.30;48.09;99706.84;4881036;28;127770;-58
2020/12/31 01:12:51;;;;;;;2.10;1.17;;;;;;;12.31;48.17;99707.63;4880701;28;125660;-58
2020/12/31 01:15:17;;;;;;;2.10;1.20;;;;;;;12.27;48.13;99713.63;4880307;28;117124;-57
2020/12/31 01:17:43;;;;;;;1.65;1.00;;;;;;;12.27;47.98;99705.53;4892207;28;113150;-57
2020/12/31 01:20:09;;;;;;;2.63;1.02;;;;;;;12.26;48.06;99706.63;4893196;28;126576;-58
2020/12/31 01:22:35;;;;;;;2.33;1.30;;;;;;;12.25;48.00;99702.28;4900069;28;117685;-57
2020/12/31 01:25:02;;;;;;;2.00;1.05;;;;;;;12.22;48.28;99705.63;4902221;28;98000;-57
2020/12/31 01:27:28;;;;;;;2.35;0.98;;;;;;;12.24;48.09;99702.59;4898849;28;112082;-57
2020/12/31 01:29:54;;;;;;;2.70;1.10;;;;;;;12.24;47.89;99705.31;4895860;28;111517;-58
2020/12/31 01:32:24;;;;;;;2.30;1.17;;;;;;;12.21;48.26;99698.59;4902780;28;115882;-57
2020/12/31 01:34:51;;;;;;;2.35;1.27;;;;;;;12.22;47.91;99693.97;4898826;28;97676;-58
2020/12/31 01:37:18;;;;;;;1.63;0.85;;;;;;;12.22;48.37;99702.09;4884911;28;101141;-58
2020/12/31 01:39:45;;;;;;;2.33;1.00;;;;;;;12.21;48.01;99698.59;4885033;28;106792;-58
2020/12/31 01:42:11;;;;;;;2.10;1.08;;;;;;;12.20;47.86;99707.00;4898924;28;106614;-58
2020/12/31 01:44:37;;;;;;;2.15;1.10;;;;;;;12.20;47.85;99710.50;4877422;28;97784;-58
2020/12/31 01:47:03;;;;;;;1.63;0.90;;;;;;;12.20;47.93;99707.00;4884060;28;118050;-57
2020/12/31 01:49:33;;;;;;;2.53;0.93;;;;;;;12.18;48.22;99706.47;4876888;28;121919;-57
2020/12/31 01:51:59;;;;;;;2.28;0.90;;;;;;;12.20;48.04;99710.50;4901295;28;98427;-58
2020/12/31 01:54:25;;;;;;;2.10;0.90;;;;;;;12.19;48.01;99700.00;4904627;28;98241;-57
2020/12/31 01:56:54;;;;;;;1.50;0.75;;;;;;;12.16;47.95;99708.69;4903816;28;97987;-57
2020/12/31 01:59:20;;;;;;;1.85;0.80;;;;;;;12.17;48.09;99713.78;4904528;28;98123;-57
2020/12/31 02:01:50;;;;;;;2.08;0.60;;;;;;;12.14;48.47;99708.97;4900855;28;127868;-57
2020/12/31 02:04:16;;;;;;;1.60;0.80;;;;;;;12.17;48.29;99713.78;4882472;28;117254;-57
2020/12/31 02:06:42;;;;;;;1.63;0.70;;;;;;;12.16;48.10;99714.09;4886114;28;117299;-57
2020/12/31 02:09:08;;;;;;;1.83;0.60;;;;;;;12.16;48.20;99714.88;4877162;28;98420;-58
2020/12/31 02:11:34;;;;;;;1.95;0.70;;;;;;;12.18;48.11;99714.59;4903573;28;98332;-57
2020/12/31 02:14:02;;;;;;;2.03;0.50;;;;;;;12.20;47.95;99720.50;4900633;28;117687;-57
2020/12/31 02:16:29;;;;;;;1.35;0.73;;;;;;;12.24;47.90;99722.31;4903230;28;118068;-57
2020/12/31 02:18:59;;;;;;;1.63;0.70;;;;;;;12.25;47.74;99723.91;4898827;28;119677;-58
2020/12/31 02:21:28;;;;;;;1.20;0.55;;;;;;;12.28;47.56;99726.03;4902351;28;97934;-57
2020/12/31 02:23:55;;;;;;;1.30;0.63;;;;;;;12.30;47.72;99728.47;4904467;28;97956;-57
2020/12/31 02:26:23;;;;;;;1.08;0.50;;;;;;;12.28;47.75;99727.94;4904247;28;98071;-57
2020/12/31 02:28:49;;;;;;;1.55;0.70;;;;;;;12.32;47.75;99730.84;4904184;28;98159;-57
2020/12/31 02:31:15;;;;;;;1.13;0.47;;;;;;;12.31;47.64;99737.34;4903506;28;115872;-57
2020/12/31 02:33:48;;;;;;;1.40;0.80;;;;;;;12.31;48.12;99729.25;4903553;28;100131;-58
2020/12/31 02:36:15;;;;;;;1.80;0.88;;;;;;;12.30;47.91;99739.25;4892257;28;98370;-57
2020/12/31 02:38:41;;;;;;;1.85;0.60;;;;;;;12.33;47.60;99740.56;4880403;28;104362;-57
2020/12/31 02:41:08;;;;;;;2.08;0.50;;;;;;;12.31;47.81;99738.16;4902539;28;118610;-58
2020/12/31 02:43:34;;;;;;;1.88;0.60;;;;;;;12.32;47.99;99737.06;4902165;28;97822;-57
2020/12/31 02:46:01;;;;;;;1.85;0.70;;;;;;;12.35;47.71;99736.47;4903405;28;120126;-58
2020/12/31 02:48:27;;;;;;;1.42;0.43;;;;;;;12.38;47.78;99745.88;4893385;28;117573;-58
2020/12/31 02:50:53;;;;;;;2.15;0.70;;;;;;;12.37;47.60;99738.88;4902967;28;125900;-57
2020/12/31 02:53:19;;;;;;;1.58;0.60;;;;;;;12.39;47.94;99744.78;4894665;28;117492;-58
2020/12/31 02:55:45;;;;;;;1.40;0.80;;;;;;;12.39;47.55;99744.78;4902415;28;129595;-57
2020/12/31 02:58:11;;;;;;;1.40;0.57;;;;;;;12.37;47.79;99741.56;4894950;28;127941;-57
2020/12/31 03:00:37;;;;;;;0.95;0.60;;;;;;;12.36;47.79;99742.66;4902676;28;127507;-58
2020/12/31 03:03:03;;;;;;;1.50;0.70;;;;;;;12.35;47.95;99746.47;4890453;28;102407;-58
2020/12/31 03:05:29;;;;;;;1.38;0.80;;;;;;;12.34;47.62;99744.84;4884094;28;100406;-57
2020/12/31 03:07:55;;;;;;;1.48;0.60;;;;;;;12.36;47.91;99739.97;4882589;28;127907;-57
2020/12/31 03:10:21;;;;;;;1.73;0.80;;;;;;;12.35;47.74;99743.78;4882926;28;129051;-57
2020/12/31 03:12:48;;;;;;;1.77;0.60;;;;;;;12.36;47.71;99750.78;4882740;28;116275;-58
2020/12/31 03:15:15;;;;;;;1.52;0.65;;;;;;;12.36;47.99;99739.97;4888504;28;129711;-57
2020/12/31 03:17:42;;;;;;;1.30;0.80;;;;;;;12.39;47.51;99745.59;4898758;28;98664;-58
2020/12/31 03:20:08;;;;;;;2.35;0.95;;;;;;;12.40;47.78;99738.28;4898479;28;127457;-57
2020/12/31 03:22:34;;;;;;;1.20;0.80;;;;;;;12.40;47.53;99735.56;4899676;28;118161;-57
2020/12/31 03:25:00;;;;;;;1.80;0.70;;;;;;;12.41;47.64;99739.88;4896695;28;128617;-57
2020/12/31 03:27:26;;;;;;;1.60;0.70;;;;;;;12.41;47.72;99737.97;4899852;28;127253;-57
2020/12/31 03:29:52;;;;;;;1.60;0.85;;;;;;;12.41;47.65;99737.97;4894466;28;128003;-57
2020/12/31 03:32:19;;;;;;;2.63;0.93;;;;;;;12.44;47.51;99740.09;4901538;28;104639;-58
2020/12/31 03:34:45;;;;;;;1.40;0.75;;;;;;;12.45;47.61;99744.38;4894704;28;128480;-57
2020/12/31 03:37:11;;;;;;;1.23;0.80;;;;;;;12.47;47.36;99744.09;4902465;28;113901;-58
2020/12/31 03:39:38;;;;;;;1.42;0.75;;;;;;;12.49;47.49;99747.28;4876573;28;113369;-58
2020/12/31 03:42:04;;;;;;;1.33;0.85;;;;;;;12.49;47.47;99739.97;4880602;28;98458;-57
2020/12/31 03:44:30;;;;;;;1.60;0.77;;;;;;;12.50;47.76;99744.31;4882378;28;115613;-58
2020/12/31 03:46:56;;;;;;;1.50;0.80;;;;;;;12.50;47.47;99743.53;4897553;28;98489;-57
2020/12/31 03:49:22;;;;;;;1.92;1.00;;;;;;;12.51;47.47;99742.41;4882356;28;127413;-58
2020/12/31 03:51:48;;;;;;;1.60;0.77;;;;;;;12.53;47.40;99742.91;4897147;28;116581;-57
2020/12/31 03:54:14;;;;;;;1.60;0.80;;;;;;;12.55;47.32;99743.41;4880730;28;126723;-57
2020/12/31 03:56:41;;;;;;;1.58;0.70;;;;;;;12.57;47.50;99743.09;4896224;28;123049;-57
2020/12/31 03:59:07;;;;;;;1.48;0.73;;;;;;;12.57;47.27;99743.91;4872768;28;127331;-57
2020/12/31 04:01:33;;;;;;;1.55;0.90;;;;;;;12.58;47.44;99744.75;4883114;28;117709;-57
2020/12/31 04:03:59;;;;;;;1.40;0.90;;;;;;;12.59;47.53;99740.94;4882862;28;115870;-57
2020/12/31 04:06:26;;;;;;;3.00;1.08;;;;;;;12.60;47.48;99740.63;4881802;28;98568;-57
2020/12/31 04:08:52;;;;;;;2.40;0.90;;;;;;;12.60;47.42;99729.00;4873182;28;115072;-58
2020/12/31 04:11:18;;;;;;;1.85;0.80;;;;;;;12.59;47.57;99725.50;4895936;28;118039;-58
2020/12/31 04:13:45;;;;;;;1.40;0.80;;;;;;;12.62;47.15;99729.53;4893018;28;127431;-57
2020/12/31 04:16:11;;;;;;;1.77;0.80;;;;;;;12.61;47.10;99725.19;4901215;28;126986;-57
2020/12/31 04:18:37;;;;;;;1.42;0.85;;;;;;;12.63;47.41;99723.00;4893583;28;127570;-58
2020/12/31 04:21:03;;;;;;;2.67;0.90;;;;;;;12.63;47.37;99725.72;4888895;28;117692;-58
2020/12/31 04:23:29;;;;;;;2.05;0.75;;;;;;;12.63;47.56;99731.91;4882600;28;114724;-57
2020/12/31 04:25:55;;;;;;;1.90;0.88;;;;;;;12.64;47.20;99730.00;4882098;28;128144;-58
2020/12/31 04:28:21;;;;;;;1.48;0.77;;;;;;;12.64;47.20;99730.00;4882760;28;97829;-57
2020/12/31 04:30:48;;;;;;;2.33;0.90;;;;;;;12.65;47.45;99723.50;4896554;28;102126;-58
2020/12/31 04:33:15;;;;;;;1.38;0.90;;;;;;;12.65;47.39;99728.91;4882751;28;98925;-58
2020/12/31 04:35:41;;;;;;;1.75;0.80;;;;;;;12.67;47.41;99721.31;4880476;28;105551;-57
2020/12/31 04:38:07;;;;;;;1.55;0.85;;;;;;;12.65;47.91;99727.00;4885896;28;128028;-57
2020/12/31 04:40:34;;;;;;;1.90;0.82;;;;;;;12.66;47.42;99734.03;4902384;28;97700;-57
2020/12/31 04:43:00;;;;;;;1.08;0.70;;;;;;;12.63;47.31;99740.03;4895234;28;108920;-57
2020/12/31 04:45:27;;;;;;;1.67;0.85;;;;;;;12.64;47.47;99735.41;4899873;28;113497;-58
2020/12/31 04:48:21;;;;;;;1.23;0.80;;;;;;;12.60;47.32;99737.91;4896179;28;112565;-57
2020/12/31 04:50:48;;;;;;;1.80;0.85;;;;;;;12.59;47.44;99736.31;4894993;28;107135;-58
2020/12/31 04:53:14;;;;;;;1.55;0.98;;;;;;;12.59;47.46;99736.31;4893912;28;98250;-57
2020/12/31 04:55:45;;;;;;;1.50;0.80;;;;;;;12.57;47.42;99746.63;4902163;28;104607;-58
2020/12/31 04:58:13;;;;;;;1.65;0.77;;;;;;;12.59;47.28;99751.75;4894137;28;102392;-58
2020/12/31 05:00:40;;;;;;;2.00;0.98;;;;;;;12.58;47.36;99748.25;4894259;28;99138;-58
2020/12/31 05:03:06;;;;;;;1.88;1.00;;;;;;;12.56;47.50;99747.72;4894465;28;116665;-57
2020/12/31 05:05:35;;;;;;;1.67;0.90;;;;;;;12.59;47.57;99754.44;4901562;28;118153;-58
2020/12/31 05:08:02;;;;;;;1.50;0.80;;;;;;;12.62;47.07;99751.16;4885172;28;120383;-57
2020/12/31 05:10:29;;;;;;;1.42;0.73;;;;;;;12.61;47.45;99755.72;4884321;28;98035;-57
2020/12/31 05:12:59;;;;;;;1.77;0.90;;;;;;;12.61;47.54;99752.22;4883992;28;126480;-57
2020/12/31 05:15:39;;;;;;;2.33;0.85;;;;;;;12.61;47.26;99765.75;4885464;28;98986;-58
2020/12/31 05:18:29;;;;;;;1.63;0.85;;;;;;;12.60;47.28;99756.84;4885715;28;98009;-58
2020/12/31 05:20:58;;;;;;;1.30;0.70;;;;;;;12.63;47.36;99764.34;4884312;28;98064;-58
2020/12/31 05:23:28;;;;;;;1.77;0.90;;;;;;;12.62;47.38;99761.97;4877377;28;99225;-57
2020/12/31 05:25:55;;;;;;;1.48;0.80;;;;;;;12.65;47.51;99764.84;4904926;28;98118;-58
2020/12/31 05:28:32;;;;;;;1.50;0.75;;;;;;;12.62;47.41;99772.78;4904172;28;121899;-58
2020/12/31 05:31:00;;;;;;;2.17;0.95;;;;;;;12.65;47.43;99774.88;4904794;28;97596;-58
2020/12/31 05:33:30;;;;;;;1.15;0.80;;;;;;;12.62;47.15;99776.28;4886096;28;110559;-58
2020/12/31 05:36:22;;;;;;;1.30;0.90;;;;;;;12.56;47.38;99779.34;4904708;28;98670;-57
2020/12/31 05:39:04;;;;;;;1.73;0.82;;;;;;;12.53;47.30;99773.44;4896228;28;98404;-58
2020/12/31 05:41:35;;;;;;;1.23;0.70;;;;;;;12.52;47.48;99774.53;4904435;28;97764;-58
2020/12/31 05:44:06;;;;;;;1.30;0.70;;;;;;;12.51;47.48;99772.16;4897179;28;99367;-57
2020/12/31 05:46:33;;;;;;;1.08;0.65;;;;;;;12.47;47.68;99777.34;4904636;28;99641;-57
2020/12/31 05:49:01;;;;;;;1.27;0.80;;;;;;;12.46;47.67;99777.66;4896256;28;98487;-57
2020/12/31 05:51:29;;;;;;;1.52;0.90;;;;;;;12.43;47.56;99783.63;4905423;28;97966;-57
2020/12/31 05:54:15;;;;;;;1.40;0.80;;;;;;;12.36;47.84;99786.72;4895625;28;104340;-58
2020/12/31 05:56:43;;;;;;;2.13;1.10;;;;;;;12.35;47.80;99782.41;4903790;28;118361;-57
2020/12/31 05:59:26;;;;;;;1.27;0.70;;;;;;;12.27;47.66;99786.59;4896298;28;98409;-57
2020/12/31 06:01:58;;;;;;;;;;;;;;;12.20;47.80;99793.47;4903052;28;97891;-57
2020/12/31 06:04:46;;;;;;;1.42;0.63;;;;;;;12.17;47.96;99804.84;4894698;28;98404;-58
2020/12/31 06:07:32;;;;;;;1.90;0.70;;;;;;;12.13;48.17;99801.94;4902183;28;98846;-57
2020/12/31 06:10:08;;;;;;;1.45;0.80;;;;;;;12.13;48.04;99807.31;4886473;28;98530;-57
2020/12/31 06:12:59;;;;;;;1.30;0.73;;;;;;;12.11;47.78;99808.75;4901785;28;97986;-57
2020/12/31 06:15:28;;;;;;;1.52;0.70;;;;;;;12.12;48.03;99807.63;4902424;28;99096;-57
2020/12/31 06:17:54;;;;;;;1.40;0.80;;;;;;;12.11;47.91;99811.44;4900976;28;98245;-57
2020/12/31 06:20:22;;;;;;;1.33;0.50;;;;;;;12.10;47.91;99812.50;4886131;28;102435;-58
2020/12/31 06:23:01;;;;;;;1.20;0.70;;;;;;;12.07;47.95;99816.63;4899848;28;97791;-57
2020/12/31 06:25:38;;;;;;;1.38;0.65;;;;;;;12.03;47.59;99818.31;4902479;28;98803;-58
2020/12/31 06:28:09;;;;;;;1.83;0.90;;;;;;;12.06;47.91;99816.91;4892793;28;98245;-57
2020/12/31 06:30:35;;;;;;;1.52;1.17;;;;;;;12.02;47.61;99822.91;4884579;28;98429;-58
2020/12/31 06:33:11;;;;;;;2.42;1.80;;;;;;;12.00;47.60;99822.38;4877968;28;97775;-57
2020/12/31 06:35:39;;;;;;;2.60;1.80;;;;;;;12.02;47.75;99824.78;4883787;28;99067;-58
2020/12/31 06:38:05;;;;;;;4.63;3.33;;;;;;;12.02;47.53;99825.59;4877964;28;98656;-58
2020/12/31 06:40:33;;;;;;;6.68;4.70;;;;;;;11.98;47.74;99829.16;4882755;28;120483;-58
2020/12/31 06:43:14;;;;;;;7.85;6.35;;;;;;;11.97;47.77;99828.34;4882177;28;108985;-58
2020/12/31 06:45:45;;;;;;;8.63;7.60;;;;;;;11.94;47.20;99834.34;4884905;28;98644;-57
2020/12/31 06:48:26;;;;;;;10.88;9.20;;;;;;;11.89;48.01;99834.41;4884037;28;98155;-57
2020/12/31 06:50:59;;;;;;;10.68;9.27;;;;;;;11.89;47.72;99845.22;4890651;28;99627;-57
2020/12/31 06:53:44;;;;;;;10.98;9.25;;;;;;;11.86;47.75;99837.69;4893255;28;109273;-58
2020/12/31 06:56:11;;;;;;;10.05;8.88;;;;;;;11.87;47.95;99838.50;4894271;28;98181;-57
2020/12/31 06:58:37;;;;;;;9.82;8.40;;;;;;;11.87;47.47;99841.19;4881525;28;99122;-57
2020/12/31 07:01:26;;;;;;;8.80;7.85;;;;;;;11.82;47.83;99841.25;4887064;28;98479;-57
2020/12/31 07:03:58;;;;;;;8.75;7.65;;;;;;;11.83;47.87;99843.69;4901356;28;97800;-57
2020/12/31 07:06:27;;;;;;;8.77;7.88;;;;;;;11.84;47.81;99847.19;4901011;28;106842;-59
2020/12/31 07:08:59;;;;;;;8.57;7.68;;;;;;;11.79;47.79;99842.63;4901110;28;98781;-57
2020/12/31 07:11:39;;;;;;;9.10;7.75;;;;;;;11.79;47.82;99843.44;4901262;28;98356;-57
2020/12/31 07:14:26;;;;;;;8.02;7.22;;;;;;;11.78;47.85;99839.09;4899792;28;97995;-57
2020/12/31 07:16:58;;;;;;;7.65;6.95;;;;;;;11.80;47.44;99850.44;4899119;28;99277;-57
2020/12/31 07:19:44;;;;;;;7.30;6.22;;;;;;;11.79;47.54;99845.34;4895548;28;98899;-57
2020/12/31 07:22:10;;;;;;;6.30;5.70;;;;;;;11.82;47.45;99847.44;4881337;28;97708;-57
2020/12/31 07:25:01;;;;;;;5.50;4.95;;;;;;;11.80;47.17;99849.63;4871662;28;98189;-57
2020/12/31 07:27:31;;;;;;;5.07;4.57;;;;;;;11.83;47.52;99842.84;4879085;28;117400;-57
2020/12/31 07:30:07;;;;;;;5.53;4.28;;;;;;;11.83;47.25;99837.44;4889712;28;98442;-57
2020/12/31 07:33:06;;;;;;;4.47;4.00;;;;;;;11.80;47.80;99844.25;4899378;28;97899;-57
2020/12/31 07:35:49;;;;;;;4.18;3.60;;;;;;;11.82;47.66;99852.84;4900059;28;98089;-57
2020/12/31 07:38:17;;;;;;;4.82;3.72;;;;;;;11.86;47.40;99847.69;4900196;28;98652;-57
2020/12/31 07:40:48;;;;;;;4.70;4.10;;;;;;;11.86;47.57;99845.78;4899533;28;99196;-58
2020/12/31 07:43:34;;;;;;;5.00;4.32;;;;;;;11.87;47.42;99844.72;4899675;28;116484;-57
2020/12/31 07:46:01;;;;;;;5.30;4.35;;;;;;;11.94;47.76;99844.34;4899118;28;117875;-57
2020/12/31 07:48:28;;;;;;;5.20;4.32;;;;;;;11.97;47.69;99841.88;4881821;28;99074;-57
2020/12/31 07:50:55;;;;;;;5.05;4.35;;;;;;;12.04;47.36;99845.00;4900211;28;104107;-57
2020/12/31 07:53:21;;;;;;;5.82;4.75;;;;;;;12.16;47.26;99841.06;4889938;28;98435;-57
2020/12/31 07:55:49;;;;;;;5.25;4.28;;;;;;;12.22;47.51;99846.13;4900312;28;97850;-57
2020/12/31 07:58:27;;;;;;;4.78;4.28;;;;;;;12.31;47.12;99848.16;4892290;28;98416;-57
2020/12/31 08:01:00;;;;;;;4.60;4.20;;;;;;;12.46;46.99;99850.63;4899932;28;98873;-57
2020/12/31 08:03:27;;;;;;;4.78;4.18;;;;;;;12.55;46.92;99843.44;4891567;28;98409;-58
2020/12/31 08:05:57;;;;;;;4.53;3.40;;;;;;;12.59;47.34;99839.06;4899445;28;97877;-57
2020/12/31 08:08:23;;;;;;;4.13;3.35;;;;;;;12.72;47.10;99842.88;4892346;28;98828;-57
2020/12/31 08:10:49;;;;;;;3.47;3.17;;;;;;;12.93;46.80;99841.44;4899555;28;111147;-57
2020/12/31 08:13:18;;;;;;;3.25;2.95;;;;;;;13.17;46.69;99826.97;4891659;28;126743;-58
2020/12/31 08:15:51;;;;;;;3.13;2.80;;;;;;;13.46;46.27;99827.47;4898433;28;111111;-58
2020/12/31 08:18:17;;;;;;;3.75;3.00;;;;;;;13.72;45.96;99821.56;4886104;28;98566;-58
2020/12/31 08:20:43;;;;;;;3.28;2.80;;;;;;;14.02;45.38;99828.19;4886360;28;99335;-58
2020/12/31 08:23:27;;;;;;;3.50;2.70;;;;;;;14.34;45.36;99832.59;4862748;28;98114;-57
2020/12/31 08:25:54;;;;;;;3.45;2.85;;;;;;;14.66;44.89;99830.81;4863718;28;97940;-58
2020/12/31 08:28:21;;;;;;;3.45;2.70;;;;;;;14.90;44.83;99825.81;4877547;28;116439;-57
2020/12/31 08:30:47;;;;;;;2.90;2.60;;;;;;;15.20;45.04;99831.53;4880514;28;98459;-58
2020/12/31 08:33:13;;;;;;;3.45;2.60;;;;;;;15.47;44.61;99823.16;4879820;28;114763;-58
2020/12/31 08:35:44;;;;;;;3.30;2.50;;;;;;;15.76;44.76;99821.84;4878528;28;98048;-57
2020/12/31 08:38:12;;;;;;;3.10;2.40;;;;;;;16.06;44.59;99822.81;4880563;28;98477;-58
2020/12/31 08:40:58;;;;;;;3.35;3.05;;;;;;;16.39;44.67;99817.72;4881752;28;99061;-57
2020/12/31 08:43:37;;;;;;;3.53;3.22;;;;;;;16.69;44.31;99817.81;4884448;28;98120;-58
2020/12/31 08:46:21;;;;;;;3.40;3.10;;;;;;;16.82;44.94;99822.31;4882613;28;98463;-58
2020/12/31 08:48:55;;;;;;;3.67;3.00;;;;;;;16.96;45.13;99818.59;4895163;28;98408;-57
2020/12/31 08:51:21;;;;;;;2.97;2.67;;;;;;;17.25;45.04;99817.81;4902303;28;98202;-58
2020/12/31 08:54:00;;;;;;;2.97;2.63;;;;;;;17.57;44.42;99817.19;4888281;28;126473;-57
2020/12/31 08:56:28;;;;;;;6.13;2.60;;;;;;;17.83;43.71;99813.53;4903208;28;97973;-58
2020/12/31 08:59:16;;;;;;;3.15;2.60;;;;;;;18.01;42.45;99809.56;4902901;28;115262;-59
2020/12/31 09:01:44;;;;;;;4.88;2.75;;;;;;;18.14;41.91;99815.88;4902866;28;98260;-58
2020/12/31 09:04:18;;;;;;;5.25;3.13;;;;;;;18.14;43.25;99818.59;4884610;28;98575;-57
2020/12/31 09:06:45;;;;;;;6.43;3.10;;;;;;;18.16;44.51;99821.78;4885062;28;98062;-59
2020/12/31 09:09:25;;;;;;;5.03;2.85;;;;;;;18.16;45.22;99816.34;4900898;28;120399;-59
2020/12/31 09:12:03;;;;;;;3.83;2.60;;;;;;;18.42;46.77;99818.03;4901909;28;98715;-59
2020/12/31 09:14:31;;;;;;;4.82;2.42;;;;;;;18.56;47.87;99819.34;4902373;28;98226;-59
2020/12/31 09:16:57;;;;;;;4.38;2.10;;;;;;;18.75;48.62;99816.13;4900842;28;97871;-59
2020/12/31 09:19:23;;;;;;;3.47;2.33;;;;;;;18.94;49.30;99815.59;4902880;28;98318;-59
2020/12/31 09:21:50;;;;;;;2.83;2.00;;;;;;;19.08;49.69;99823.47;4883691;28;98483;-59
2020/12/31 09:24:20;;;;;;;2.35;1.83;;;;;;;19.19;49.88;99823.84;4884436;28;100089;-59
2020/12/31 09:27:04;;;;;;;2.17;1.88;;;;;;;19.38;49.82;99815.88;4902864;28;103378;-59
2020/12/31 09:29:30;;;;;;;2.75;2.05;;;;;;;19.47;49.93;99808.34;4901667;28;109826;-60
2020/12/31 09:31:56;;;;;;;2.55;2.25;;;;;;;19.50;50.21;99820.53;4901564;28;129172;-59
2020/12/31 09:34:23;;;;;;;3.03;1.95;;;;;;;19.58;50.30;99817.69;4899519;28;127476;-59
2020/12/31 09:36:49;;;;;;;2.35;2.10;;;;;;;19.58;51.18;99823.16;4903085;28;97825;-59
2020/12/31 09:39:15;;;;;;;2.22;1.98;;;;;;;19.52;51.26;99823.72;4900257;28;117412;-59
2020/12/31 09:41:41;;;;;;;2.85;2.33;;;;;;;19.38;51.52;99826.81;4900790;28;128795;-59
2020/12/31 09:44:07;;;;;;;2.75;2.40;;;;;;;19.15;52.21;99815.53;4893540;28;126280;-59
2020/12/31 09:46:33;;;;;;;2.67;2.10;;;;;;;18.84;53.20;99824.22;4879994;28;118905;-59
2020/12/31 09:48:59;;;;;;;2.85;2.50;;;;;;;18.63;54.07;99819.59;4879562;28;98445;-59
2020/12/31 09:51:25;;;;;;;3.17;2.45;;;;;;;18.40;54.16;99815.66;4882334;28;98716;-59
2020/12/31 09:53:52;;;;;;;2.40;2.17;;;;;;;18.31;55.00;99823.91;4890315;28;127409;-59
2020/12/31 09:56:25;;;;;;;3.05;2.55;;;;;;;18.10;54.89;99820.38;4882490;28;111431;-59
2020/12/31 09:58:51;;;;;;;2.60;2.40;;;;;;;17.95;55.65;99816.31;4882835;28;112198;-59
2020/12/31 10:01:17;;;;;;;3.22;2.50;;;;;;;17.83;55.95;99818.97;4900163;28;128212;-59
2020/12/31 10:03:43;;;;;;;2.90;2.60;;;;;;;17.66;56.18;99809.75;4897858;28;97854;-59
2020/12/31 10:06:09;;;;;;;3.28;2.67;;;;;;;17.50;56.77;99807.94;4886971;28;117084;-59
2020/12/31 10:08:35;;;;;;;3.10;2.65;;;;;;;17.37;57.12;99807.03;4900004;28;125982;-59
2020/12/31 10:11:01;;;;;;;4.07;2.78;;;;;;;17.17;57.56;99809.38;4901175;28;98457;-59
2020/12/31 10:13:28;;;;;;;3.65;3.03;;;;;;;16.99;57.99;99799.69;4899498;28;126571;-59
2020/12/31 10:15:54;;;;;;;3.22;2.70;;;;;;;16.87;57.82;99799.56;4900214;28;117436;-59
2020/12/31 10:18:20;;;;;;;3.47;3.17;;;;;;;16.71;58.12;99807.44;4900385;28;127570;-59
2020/12/31 10:20:46;;;;;;;3.95;3.28;;;;;;;16.57;57.88;99804.09;4900807;28;107862;-59
2020/12/31 10:23:12;;;;;;;4.10;3.30;;;;;;;16.42;57.87;99794.50;4900437;28;126303;-58
2020/12/31 10:25:38;;;;;;;4.07;3.50;;;;;;;16.32;58.24;99801.09;4900602;28;117628;-58
2020/12/31 10:28:04;;;;;;;3.60;3.10;;;;;;;16.22;58.52;99793.25;4898806;28;128628;-58
2020/12/31 10:30:30;;;;;;;4.43;3.65;;;;;;;16.15;58.73;99803.78;4899805;28;127741;-58
2020/12/31 10:32:56;;;;;;;4.40;3.40;;;;;;;16.06;58.73;99798.34;4901947;28;97984;-58
2020/12/31 10:35:22;;;;;;;3.90;3.30;;;;;;;15.94;59.02;99793.56;4900663;28;113575;-58
2020/12/31 10:37:48;;;;;;;5.03;3.85;;;;;;;15.87;58.64;99789.72;4900089;28;128997;-58
2020/12/31 10:40:14;;;;;;;3.55;3.25;;;;;;;15.77;58.81;99787.31;4900822;28;109606;-58
2020/12/31 10:42:41;;;;;;;4.20;3.80;;;;;;;15.73;59.21;99784.44;4898765;28;104985;-58
2020/12/31 10:45:07;;;;;;;3.60;3.25;;;;;;;15.68;59.48;99790.84;4880168;28;98207;-59
2020/12/31 10:47:33;;;;;;;4.40;3.20;;;;;;;15.66;59.55;99778.69;4883424;28;128591;-59
2020/12/31 10:49:59;;;;;;;3.95;3.55;;;;;;;15.60;59.76;99772.56;4879360;28;128948;-59
2020/12/31 10:52:26;;;;;;;4.47;3.47;;;;;;;15.55;59.71;99775.41;4881577;28;127699;-59
2020/12/31 10:54:52;;;;;;;3.83;3.08;;;;;;;15.49;59.92;99779.41;4897266;28;117800;-59
2020/12/31 10:57:18;;;;;;;3.65;3.00;;;;;;;15.47;59.63;99773.50;4878511;28;128254;-59
2020/12/31 10:59:44;;;;;;;3.95;3.08;;;;;;;15.42;59.97;99768.22;4900672;28;127702;-59
2020/12/31 11:02:10;;;;;;;3.60;3.08;;;;;;;15.42;60.05;99760.06;4890802;28;127474;-58
2020/12/31 11:04:36;;;;;;;3.90;3.22;;;;;;;15.39;59.77;99763.41;4880442;28;117103;-59
2020/12/31 11:07:02;;;;;;;4.65;3.33;;;;;;;15.35;60.19;99754.31;4870083;28;121502;-59
2020/12/31 11:09:29;;;;;;;3.75;3.22;;;;;;;15.31;59.91;99750.63;4882289;28;103897;-59
2020/12/31 11:11:55;;;;;;;3.58;3.28;;;;;;;15.29;59.72;99755.56;4881625;28;98774;-59
2020/12/31 11:14:21;;;;;;;3.50;3.13;;;;;;;15.27;60.07;99747.72;4861909;28;116735;-59
2020/12/31 11:16:51;;;;;;;3.30;3.00;;;;;;;15.22;60.12;99747.88;4891233;28;127204;-59
2020/12/31 11:19:17;;;;;;;3.60;3.10;;;;;;;15.20;60.35;99733.81;4884497;28;99048;-59
2020/12/31 11:21:43;;;;;;;3.65;2.63;;;;;;;15.17;60.13;99731.75;4899991;28;114796;-59
2020/12/31 11:24:09;;;;;;;3.33;3.03;;;;;;;15.15;60.37;99733.97;4879393;28;98208;-59
2020/12/31 11:26:35;;;;;;;3.75;2.80;;;;;;;15.10;60.48;99734.13;4896187;28;101134;-59
2020/12/31 11:29:01;;;;;;;3.63;3.15;;;;;;;15.06;60.67;99728.53;4899217;28;128223;-60
2020/12/31 11:31:29;;;;;;;3.22;2.92;;;;;;;15.05;60.49;99720.69;4899043;28;98100;-59
2020/12/31 11:33:55;;;;;;;3.03;2.72;;;;;;;15.00;60.45;99721.63;4900102;28;98214;-59
2020/12/31 11:36:22;;;;;;;3.45;3.10;;;;;;;14.95;60.03;99732.63;4899712;28;98508;-59
2020/12/31 11:38:49;;;;;;;4.53;3.58;;;;;;;14.92;60.36;99723.19;4900603;28;98335;-58